createdAt,value
2023-03-15T00:00:12.484Z,8.07
2023-03-15T00:02:44.186Z,12.63
2023-03-15T00:05:15.934Z,6.38
2023-03-15T00:07:47.619Z,6.20
2023-03-15T00:10:21.247Z,9.30
2023-03-15T00:12:52.926Z,8.00
2023-03-15T00:15:24.609Z,8.82
2023-03-15T00:17:56.376Z,9.00
2023-03-15T00:20:28.087Z,4.97
2023-03-15T00:22:59.775Z,7.78
2023-03-15T00:25:31.570Z,10.32
2023-03-15T00:28:03.537Z,5.40
2023-03-15T00:30:37.217Z,10.80
2023-03-15T00:33:13.722Z,8.15
2023-03-15T00:35:45.707Z,5.80
2023-03-15T00:38:17.351Z,7.82
2023-03-15T00:40:49.645Z,5.80
2023-03-15T00:43:21.280Z,10.18
2023-03-15T00:45:53.097Z,6.78
2023-03-15T00:48:24.781Z,10.80
2023-03-15T00:51:08.083Z,9.80
2023-03-15T00:53:42.429Z,7.50
2023-03-15T00:56:20.324Z,8.68
2023-03-15T00:58:55.265Z,8.80
2023-03-15T01:01:29.817Z,10.75
2023-03-15T01:04:01.590Z,11.18
2023-03-15T01:06:33.355Z,11.10
2023-03-15T01:09:05.845Z,7.25
2023-03-15T01:11:37.760Z,8.95
2023-03-15T01:14:10.059Z,7.63
2023-03-15T01:16:42.202Z,11.55
2023-03-15T01:19:15.328Z,10.60
2023-03-15T01:21:47.992Z,6.97
2023-03-15T01:24:22.100Z,7.45
2023-03-15T01:26:55.236Z,9.23
2023-03-15T01:29:27.521Z,5.32
2023-03-15T01:31:59.222Z,7.00
2023-03-15T01:34:30.967Z,6.45
2023-03-15T01:37:05.614Z,5.90
2023-03-15T01:39:43.036Z,8.57
2023-03-15T01:42:14.710Z,5.07
2023-03-15T01:45:00.093Z,6.03
2023-03-15T01:47:32.814Z,5.18
2023-03-15T01:50:11.454Z,8.82
2023-03-15T01:52:43.644Z,8.43
2023-03-15T01:55:22.000Z,7.88
2023-03-15T01:58:24.179Z,8.75
2023-03-15T02:00:56.103Z,9.65
2023-03-15T02:03:35.918Z,8.35
2023-03-15T02:06:10.197Z,8.43
2023-03-15T02:09:04.617Z,6.72
2023-03-15T02:11:40.564Z,6.45
2023-03-15T02:14:14.485Z,9.73
2023-03-15T02:16:49.697Z,6.05
2023-03-15T02:19:57.044Z,8.47
2023-03-15T02:23:07.208Z,7.82
2023-03-15T02:25:49.177Z,6.25
2023-03-15T02:28:20.950Z,5.18
2023-03-15T02:30:52.617Z,9.05
2023-03-15T02:33:26.251Z,6.18
2023-03-15T02:36:10.119Z,5.60
2023-03-15T02:38:42.093Z,6.18
2023-03-15T02:41:17.894Z,6.40
2023-03-15T02:43:53.284Z,8.07
2023-03-15T02:46:25.118Z,11.48
2023-03-15T02:48:57.329Z,8.20
2023-03-15T02:51:33.425Z,6.03
2023-03-15T02:54:06.330Z,8.35
2023-03-15T02:56:38.050Z,6.75
2023-03-15T02:59:09.819Z,6.63
2023-03-15T03:01:42.204Z,6.55
2023-03-15T03:04:14.027Z,8.02
2023-03-15T03:06:46.197Z,5.72
2023-03-15T03:09:22.578Z,6.15
2023-03-15T03:11:54.358Z,8.18
2023-03-15T03:14:26.086Z,6.65
2023-03-15T03:16:58.021Z,9.18
2023-03-15T03:19:29.833Z,3.72
2023-03-15T03:22:01.538Z,5.95
2023-03-15T03:24:33.812Z,7.95
2023-03-15T03:27:08.979Z,5.53
2023-03-15T03:29:43.091Z,9.35
2023-03-15T03:32:15.869Z,5.25
2023-03-15T03:34:50.908Z,8.52
2023-03-15T03:37:26.628Z,8.82
2023-03-15T03:40:09.156Z,6.05
2023-03-15T03:42:41.633Z,5.72
2023-03-15T03:45:13.523Z,7.90
2023-03-15T03:47:48.555Z,8.02
2023-03-15T03:50:21.102Z,6.03
2023-03-15T03:52:53.882Z,9.77
2023-03-15T03:55:30.148Z,8.93
2023-03-15T03:58:01.940Z,6.03
2023-03-15T04:00:59.815Z,9.38
2023-03-15T04:03:36.925Z,8.30
2023-03-15T04:06:19.130Z,7.75
2023-03-15T04:08:52.689Z,8.45
2023-03-15T04:11:39.034Z,7.63
2023-03-15T04:14:14.399Z,3.58
2023-03-15T04:16:48.765Z,7.70
2023-03-15T04:19:23.211Z,8.35
2023-03-15T04:21:55.852Z,6.03
2023-03-15T04:24:45.519Z,9.98
2023-03-15T04:27:40.379Z,9.25
2023-03-15T04:30:32.014Z,7.13
2023-03-15T04:33:32.614Z,9.88
2023-03-15T04:36:23.802Z,8.02
2023-03-15T04:39:15.774Z,13.05
2023-03-15T04:41:51.079Z,7.53
2023-03-15T04:44:34.797Z,9.65
2023-03-15T04:47:32.836Z,7.85
2023-03-15T04:50:34.220Z,8.55
2023-03-15T04:53:29.107Z,14.40
2023-03-15T04:56:19.147Z,9.88
2023-03-15T04:59:04.299Z,6.35
2023-03-15T05:01:58.887Z,10.10
2023-03-15T05:04:39.496Z,8.20
2023-03-15T05:07:29.791Z,10.18
2023-03-15T05:10:33.677Z,11.05
2023-03-15T05:13:29.680Z,5.90
2023-03-15T05:16:18.525Z,8.25
2023-03-15T05:19:00.121Z,8.00
2023-03-15T05:22:03.830Z,10.27
2023-03-15T05:24:54.362Z,9.70
2023-03-15T05:27:46.643Z,7.25
2023-03-15T05:30:36.960Z,11.90
2023-03-15T05:33:31.619Z,8.40
2023-03-15T05:36:17.448Z,9.55
2023-03-15T05:39:04.409Z,10.68
2023-03-15T05:42:06.667Z,11.77
2023-03-15T05:45:04.266Z,23.52
2023-03-15T05:47:47.710Z,12.02
2023-03-15T05:50:37.780Z,16.00
2023-03-15T05:53:42.444Z,10.48
2023-03-15T05:56:30.288Z,7.03
2023-03-15T05:59:20.557Z,5.65
2023-03-15T06:02:10.550Z,7.95
2023-03-15T06:04:50.918Z,13.70
2023-03-15T06:07:26.792Z,9.57
2023-03-15T06:09:58.547Z,9.23
2023-03-15T06:12:31.354Z,8.77
2023-03-15T06:15:03.176Z,9.85
2023-03-15T06:17:34.964Z,6.43
2023-03-15T06:20:07.175Z,12.45
2023-03-15T06:22:39.306Z,10.57
2023-03-15T06:25:20.683Z,10.00
2023-03-15T06:27:52.464Z,8.77
2023-03-15T06:30:26.084Z,9.25
2023-03-15T06:33:01.419Z,8.88
2023-03-15T06:35:37.064Z,6.53
2023-03-15T06:38:11.854Z,10.20
2023-03-15T06:40:43.979Z,11.55
2023-03-15T06:43:19.558Z,12.65
2023-03-15T06:45:53.614Z,16.50
2023-03-15T06:48:26.408Z,10.07
2023-03-15T06:50:58.361Z,6.97
2023-03-15T06:53:30.507Z,10.13
2023-03-15T06:56:02.227Z,5.95
2023-03-15T06:58:34.074Z,9.73
2023-03-15T07:01:06.126Z,7.82
2023-03-15T07:03:37.880Z,9.25
2023-03-15T07:06:10.063Z,4.90
2023-03-15T07:08:41.841Z,8.32
2023-03-15T07:11:14.040Z,7.35
2023-03-15T07:13:45.869Z,4.82
2023-03-15T07:16:17.631Z,11.93
2023-03-15T07:18:50.379Z,7.28
2023-03-15T07:21:22.276Z,4.15
2023-03-15T07:23:54.328Z,6.97
2023-03-15T07:26:26.054Z,7.35
2023-03-15T07:29:01.809Z,7.38
2023-03-15T07:31:33.599Z,9.13
2023-03-15T07:34:05.325Z,6.28
2023-03-15T07:36:37.060Z,8.50
2023-03-15T07:39:09.101Z,5.82
2023-03-15T07:41:40.858Z,7.07
2023-03-15T07:44:20.489Z,6.93
2023-03-15T07:46:52.620Z,8.50
2023-03-15T07:49:25.000Z,9.98
2023-03-15T07:51:56.752Z,5.03
2023-03-15T07:54:31.784Z,9.50
2023-03-15T07:57:03.847Z,13.70
2023-03-15T07:59:35.891Z,8.18
2023-03-15T08:02:10.025Z,6.22
2023-03-15T08:04:41.944Z,6.47
2023-03-15T08:07:15.671Z,5.30
2023-03-15T08:09:48.378Z,5.37
2023-03-15T08:12:20.177Z,6.47
2023-03-15T08:14:53.039Z,5.18
2023-03-15T08:17:26.725Z,6.50
2023-03-15T08:19:58.381Z,4.32
2023-03-15T08:22:30.362Z,6.75
2023-03-15T08:25:02.108Z,5.32
2023-03-15T08:27:33.854Z,8.75
2023-03-15T08:30:06.132Z,5.28
2023-03-15T08:32:38.881Z,6.55
2023-03-15T08:35:15.133Z,3.75
2023-03-15T08:37:48.016Z,5.75
2023-03-15T08:40:24.108Z,5.95
2023-03-15T08:42:56.723Z,5.57
2023-03-15T08:45:28.448Z,3.33
2023-03-15T08:48:01.145Z,8.50
2023-03-15T08:50:32.947Z,4.40
2023-03-15T08:53:04.664Z,11.57
2023-03-15T08:55:36.932Z,5.80
2023-03-15T08:58:08.963Z,5.88
2023-03-15T09:00:40.638Z,5.05
2023-03-15T09:03:12.437Z,3.28
2023-03-15T09:05:44.497Z,5.22
2023-03-15T09:08:21.059Z,6.28
2023-03-15T09:10:56.925Z,3.35
2023-03-15T09:13:29.140Z,3.83
2023-03-15T09:16:00.815Z,5.60
2023-03-15T09:18:34.032Z,6.15
2023-03-15T09:21:05.771Z,2.95
2023-03-15T09:23:37.525Z,7.80
2023-03-15T09:26:09.232Z,5.03
2023-03-15T09:28:40.959Z,3.42
2023-03-15T09:31:12.659Z,3.80
2023-03-15T09:33:46.432Z,5.03
2023-03-15T09:36:18.174Z,4.50
2023-03-15T09:38:50.007Z,4.28
2023-03-15T09:41:46.300Z,5.03
2023-03-15T09:44:29.108Z,3.83
2023-03-15T09:47:00.741Z,5.57
2023-03-15T09:49:52.176Z,5.13
2023-03-15T09:52:51.468Z,4.05
2023-03-15T09:55:28.276Z,5.80
2023-03-15T09:58:16.187Z,3.90
2023-03-15T10:00:59.290Z,6.80
2023-03-15T10:03:43.110Z,6.95
2023-03-15T10:06:24.393Z,4.47
2023-03-15T10:09:01.869Z,6.03
2023-03-15T10:12:07.500Z,5.70
2023-03-15T10:17:21.084Z,4.28
2023-03-15T10:19:59.088Z,3.38
2023-03-15T10:22:45.886Z,2.33
2023-03-15T10:25:29.970Z,5.38
2023-03-15T10:28:12.266Z,5.13
2023-03-15T10:30:48.388Z,3.25
2023-03-15T10:33:37.829Z,2.40
2023-03-15T10:36:22.380Z,4.85
2023-03-15T10:38:54.065Z,4.72
2023-03-15T10:41:29.968Z,6.65
2023-03-15T10:44:05.291Z,9.30
2023-03-15T10:46:37.812Z,3.53
2023-03-15T10:49:19.980Z,4.07
2023-03-15T10:51:51.647Z,6.18
2023-03-15T10:54:25.031Z,5.20
2023-03-15T10:57:04.244Z,3.83
2023-03-15T10:59:36.327Z,6.03
2023-03-15T11:02:25.576Z,5.25
2023-03-15T11:05:04.464Z,4.13
2023-03-15T11:07:36.716Z,4.63
2023-03-15T11:10:21.348Z,4.97
2023-03-15T11:13:14.583Z,5.63
2023-03-15T11:16:15.323Z,3.90
2023-03-15T11:19:01.480Z,5.43
2023-03-15T11:21:36.791Z,5.35
2023-03-15T11:24:22.549Z,5.65
2023-03-15T11:27:03.721Z,5.10
2023-03-15T11:29:37.220Z,3.80
2023-03-15T11:32:21.346Z,5.18
2023-03-15T11:34:52.912Z,4.70
2023-03-15T11:37:49.853Z,6.68
2023-03-15T11:40:24.943Z,6.30
2023-03-15T11:43:08.822Z,4.20
2023-03-15T11:46:00.598Z,5.65
2023-03-15T11:48:48.802Z,6.10
2023-03-15T11:51:20.729Z,6.75
2023-03-15T11:54:05.632Z,7.32
2023-03-15T11:56:43.276Z,2.95
2023-03-15T11:59:20.551Z,4.43
2023-03-15T12:02:13.298Z,5.63
2023-03-15T12:04:47.015Z,6.07
2023-03-15T12:07:24.520Z,3.03
2023-03-15T12:10:05.190Z,3.03
2023-03-15T12:12:37.860Z,7.97
2023-03-15T12:15:18.823Z,12.98
2023-03-15T12:17:51.705Z,3.15
2023-03-15T12:20:42.842Z,4.57
2023-03-15T12:23:17.483Z,3.83
2023-03-15T12:25:55.618Z,4.93
2023-03-15T12:28:34.143Z,3.08
2023-03-15T12:31:13.067Z,4.38
2023-03-15T12:33:58.719Z,4.03
2023-03-15T12:36:35.215Z,2.65
2023-03-15T12:39:09.547Z,5.75
2023-03-15T12:41:50.044Z,7.57
2023-03-15T12:44:33.890Z,5.63
2023-03-15T12:47:07.146Z,5.38
2023-03-15T12:49:44.122Z,4.38
2023-03-15T12:52:18.598Z,5.75
2023-03-15T12:54:54.712Z,5.95
2023-03-15T12:57:35.851Z,5.28
2023-03-15T13:00:21.455Z,4.20
2023-03-15T13:03:04.485Z,5.13
2023-03-15T13:06:08.671Z,3.55
2023-03-15T13:09:04.911Z,4.88
2023-03-15T13:12:15.220Z,4.47
2023-03-15T13:14:58.508Z,5.60
2023-03-15T13:17:49.510Z,3.08
2023-03-15T13:20:42.576Z,5.32
2023-03-15T13:23:18.703Z,5.63
2023-03-15T13:26:20.731Z,7.60
2023-03-15T13:29:20.076Z,9.38
2023-03-15T13:32:22.951Z,5.55
2023-03-15T13:34:57.252Z,4.95
2023-03-15T13:37:32.028Z,8.70
2023-03-15T13:42:43.711Z,4.70
2023-03-15T13:45:16.963Z,3.70
2023-03-15T13:47:48.923Z,4.57
2023-03-15T13:50:21.794Z,11.00
2023-03-15T13:52:55.525Z,5.20
2023-03-15T13:55:32.673Z,6.13
2023-03-15T13:58:09.287Z,7.85
2023-03-15T14:00:41.506Z,4.82
2023-03-15T14:03:17.447Z,5.47
2023-03-15T14:05:52.580Z,6.95
2023-03-15T14:08:31.525Z,4.75
2023-03-15T14:11:40.614Z,5.75
2023-03-15T14:14:32.407Z,6.15
2023-03-15T14:17:17.962Z,5.78
2023-03-15T14:20:08.727Z,6.47
2023-03-15T14:22:42.013Z,3.00
2023-03-15T14:25:22.234Z,5.78
2023-03-15T14:27:54.216Z,3.50
2023-03-15T14:30:26.182Z,8.90
2023-03-15T14:33:04.752Z,3.85
2023-03-15T14:35:36.560Z,4.68
2023-03-15T14:38:17.966Z,3.75
2023-03-15T14:40:51.837Z,4.28
2023-03-15T14:43:23.900Z,3.75
2023-03-15T14:45:55.723Z,3.00
2023-03-15T14:48:30.085Z,3.72
2023-03-15T14:51:02.103Z,4.80
2023-03-15T14:53:37.592Z,3.92
2023-03-15T14:56:13.579Z,2.65
2023-03-15T14:58:45.236Z,7.10
2023-03-15T15:01:22.640Z,5.15
2023-03-15T15:03:59.739Z,4.90
2023-03-15T15:06:32.016Z,3.83
2023-03-15T15:09:05.889Z,2.85
2023-03-15T15:11:37.771Z,2.47
2023-03-15T15:14:15.576Z,2.05
2023-03-15T15:16:47.616Z,2.88
2023-03-15T15:19:19.579Z,3.42
2023-03-15T15:21:51.734Z,5.57
2023-03-15T15:24:26.550Z,4.38
2023-03-15T15:29:29.716Z,5.28
2023-03-15T15:32:01.494Z,7.25
2023-03-15T15:34:34.060Z,7.22
2023-03-15T15:37:06.073Z,5.63
2023-03-15T15:39:38.260Z,4.97
2023-03-15T15:42:11.025Z,4.43
2023-03-15T15:44:42.760Z,7.90
2023-03-15T15:47:14.477Z,4.13
2023-03-15T15:49:46.173Z,5.95
2023-03-15T15:52:17.880Z,7.72
2023-03-15T15:54:49.578Z,5.63
2023-03-15T15:57:26.552Z,5.07
2023-03-15T15:59:58.333Z,4.30
2023-03-15T16:02:30.052Z,4.22
2023-03-15T16:05:01.802Z,6.00
2023-03-15T16:07:33.597Z,5.22
2023-03-15T16:10:06.565Z,6.32
2023-03-15T16:12:38.316Z,5.85
2023-03-15T16:15:14.437Z,5.90
2023-03-15T16:17:46.743Z,4.97
2023-03-15T16:20:19.694Z,5.90
2023-03-15T16:22:57.713Z,5.40
2023-03-15T16:25:33.831Z,5.05
2023-03-15T16:28:07.852Z,5.05
2023-03-15T16:30:40.774Z,7.05
2023-03-15T16:33:16.453Z,6.07
2023-03-15T16:35:50.266Z,5.97
2023-03-15T16:38:26.402Z,4.80
2023-03-15T16:40:59.813Z,3.40
2023-03-15T16:43:31.550Z,4.60
2023-03-15T16:46:13.707Z,3.75
2023-03-15T16:48:45.618Z,2.45
2023-03-15T16:51:17.470Z,3.42
2023-03-15T16:53:49.206Z,3.70
2023-03-15T16:56:21.004Z,2.92
2023-03-15T16:58:54.078Z,2.78
2023-03-15T17:01:25.903Z,5.95
2023-03-15T17:03:58.184Z,4.63
2023-03-15T17:06:31.414Z,3.95
2023-03-15T17:09:09.297Z,4.32
2023-03-15T17:11:43.435Z,5.38
2023-03-15T17:14:19.571Z,3.55
2023-03-15T17:16:51.238Z,3.92
2023-03-15T17:19:23.292Z,3.08
2023-03-15T17:21:55.008Z,1.70
2023-03-15T17:24:26.745Z,2.40
2023-03-15T17:26:58.777Z,3.22
2023-03-15T17:29:30.755Z,3.42
2023-03-15T17:32:02.514Z,3.38
2023-03-15T17:34:34.230Z,4.03
2023-03-15T17:37:05.902Z,4.13
2023-03-15T17:39:38.191Z,3.97
2023-03-15T17:42:13.498Z,5.47
2023-03-15T17:44:45.250Z,4.15
2023-03-15T17:47:16.956Z,3.03
2023-03-15T17:49:48.763Z,3.92
2023-03-15T17:52:21.039Z,4.78
2023-03-15T17:54:52.683Z,5.07
2023-03-15T17:57:24.628Z,5.53
2023-03-15T17:59:56.339Z,4.18
2023-03-15T18:02:28.326Z,4.85
2023-03-15T18:05:00.517Z,4.22
2023-03-15T18:07:32.334Z,6.78
2023-03-15T18:10:04.360Z,3.88
2023-03-15T18:12:36.110Z,5.88
2023-03-15T18:15:11.078Z,5.32
2023-03-15T18:17:42.874Z,5.68
2023-03-15T18:20:15.557Z,5.85
2023-03-15T18:22:48.036Z,4.82
2023-03-15T18:25:22.808Z,4.97
2023-03-15T18:30:28.618Z,4.65
2023-03-15T18:33:00.798Z,4.47
2023-03-15T18:35:34.801Z,5.35
2023-03-15T18:38:06.584Z,6.03
2023-03-15T18:40:38.280Z,4.32
2023-03-15T18:43:14.580Z,6.35
2023-03-15T18:45:46.380Z,5.07
2023-03-15T18:48:19.578Z,5.07
2023-03-15T18:50:52.800Z,6.82
2023-03-15T18:53:24.425Z,7.28
2023-03-15T18:55:56.112Z,7.15
2023-03-15T18:58:27.777Z,6.72
2023-03-15T19:00:59.838Z,6.57
2023-03-15T19:03:31.529Z,7.68
2023-03-15T19:06:05.970Z,8.98
2023-03-15T19:08:37.878Z,9.80
2023-03-15T19:11:11.328Z,7.95
2023-03-15T19:13:43.505Z,8.82
2023-03-15T19:16:16.749Z,10.50
2023-03-15T19:18:49.615Z,9.85
2023-03-15T19:21:21.486Z,11.93
2023-03-15T19:23:53.289Z,8.70
2023-03-15T19:26:25.136Z,10.85
2023-03-15T19:28:56.902Z,12.32
2023-03-15T19:31:29.323Z,11.23
2023-03-15T19:34:01.512Z,12.73
2023-03-15T19:36:33.195Z,16.60
2023-03-15T19:39:07.140Z,14.07
2023-03-15T19:41:39.195Z,12.20
2023-03-15T19:44:11.313Z,11.98
2023-03-15T19:46:43.117Z,16.10
2023-03-15T19:49:14.864Z,12.80
2023-03-15T19:51:46.619Z,12.70
2023-03-15T19:54:18.628Z,12.57
2023-03-15T19:56:50.818Z,12.75
2023-03-15T19:59:25.204Z,11.30
2023-03-15T20:01:57.063Z,13.13
2023-03-15T20:04:28.870Z,16.00
2023-03-15T20:07:03.585Z,13.00
2023-03-15T20:09:38.888Z,16.00
2023-03-15T20:12:12.733Z,16.63
2023-03-15T20:14:44.515Z,15.57
2023-03-15T20:17:16.371Z,14.73
2023-03-15T20:19:48.073Z,15.82
2023-03-15T20:22:19.958Z,18.63
2023-03-15T20:24:51.760Z,15.40
2023-03-15T20:27:23.456Z,15.75
2023-03-15T20:29:56.626Z,17.13
2023-03-15T20:32:28.686Z,14.95
2023-03-15T20:35:02.333Z,16.10
2023-03-15T20:37:34.917Z,14.70
2023-03-15T20:40:09.108Z,16.67
2023-03-15T20:42:41.844Z,14.00
2023-03-15T20:45:14.053Z,17.35
2023-03-15T20:47:45.931Z,14.63
2023-03-15T20:50:17.640Z,14.43
2023-03-15T20:52:49.342Z,15.75
2023-03-15T20:55:21.204Z,13.52
2023-03-15T20:57:53.503Z,21.52
2023-03-15T21:00:27.190Z,13.55
2023-03-15T21:02:58.951Z,15.85
2023-03-15T21:05:32.370Z,18.20
2023-03-15T21:08:04.382Z,14.95
2023-03-15T21:10:37.398Z,16.02
2023-03-15T21:13:10.336Z,14.23
2023-03-15T21:15:46.459Z,14.73
2023-03-15T21:18:18.360Z,16.20
2023-03-15T21:21:05.266Z,15.85
2023-03-15T21:23:37.060Z,18.70
2023-03-15T21:26:11.031Z,15.30
2023-03-15T21:28:43.139Z,16.33
2023-03-15T21:31:15.507Z,14.77
2023-03-15T21:33:49.220Z,15.35
2023-03-15T21:36:22.486Z,15.82
2023-03-15T21:38:54.193Z,13.93
2023-03-15T21:41:25.940Z,14.43
2023-03-15T21:43:57.663Z,14.77
2023-03-15T21:46:29.477Z,15.85
2023-03-15T21:49:01.800Z,15.23
2023-03-15T21:51:34.200Z,15.38
2023-03-15T21:54:05.893Z,12.65
2023-03-15T21:56:37.594Z,13.13
2023-03-15T21:59:09.516Z,14.55
2023-03-15T22:01:41.813Z,12.68
2023-03-15T22:04:13.528Z,13.20
2023-03-15T22:06:45.236Z,12.98
2023-03-15T22:09:16.891Z,14.35
2023-03-15T22:11:48.928Z,14.65
2023-03-15T22:14:21.797Z,12.77
2023-03-15T22:16:53.606Z,11.25
2023-03-15T22:19:25.387Z,14.13
2023-03-15T22:21:57.743Z,11.55
2023-03-15T22:24:29.437Z,13.55
2023-03-15T22:27:01.312Z,12.35
2023-03-15T22:29:33.466Z,13.43
2023-03-15T22:32:06.217Z,15.23
2023-03-15T22:34:37.918Z,12.52
2023-03-15T22:37:09.688Z,14.57
2023-03-15T22:39:42.936Z,16.80
2023-03-15T22:42:14.635Z,13.02
2023-03-15T22:44:46.271Z,15.25
2023-03-15T22:47:18.052Z,14.52
2023-03-15T22:49:49.714Z,13.68
2023-03-15T22:52:22.964Z,13.32
2023-03-15T22:54:54.639Z,15.13
2023-03-15T22:57:26.335Z,14.88
2023-03-15T22:59:58.688Z,15.05
2023-03-15T23:02:33.015Z,14.70
2023-03-15T23:05:05.903Z,14.68
2023-03-15T23:07:38.056Z,12.73
2023-03-15T23:10:11.366Z,18.63
2023-03-15T23:12:43.194Z,14.60
2023-03-15T23:15:14.983Z,15.57
2023-03-15T23:17:46.945Z,19.40
2023-03-15T23:20:19.818Z,15.80
2023-03-15T23:22:51.865Z,15.93
2023-03-15T23:25:25.032Z,14.57
2023-03-15T23:27:57.385Z,15.10
2023-03-15T23:30:35.136Z,14.77
2023-03-15T23:33:08.543Z,15.73
2023-03-15T23:35:41.942Z,16.85
2023-03-15T23:38:13.685Z,14.98
2023-03-15T23:40:45.334Z,14.57
2023-03-15T23:43:17.072Z,16.55
2023-03-15T23:45:48.777Z,16.65
2023-03-15T23:48:20.473Z,16.27
2023-03-15T23:50:56.937Z,16.45
2023-03-15T23:53:29.076Z,17.17
2023-03-15T23:56:01.451Z,17.83
2023-03-15T23:58:33.201Z,17.08
